createdAt,value
2023-03-22T00:00:00.145Z,996.03
2023-03-22T00:05:00.139Z,995.91
2023-03-22T00:10:00.121Z,995.95
2023-03-22T00:15:00.129Z,995.9
2023-03-22T00:20:00.119Z,995.78
2023-03-22T00:25:00.133Z,995.79
2023-03-22T00:30:00.134Z,995.65
2023-03-22T00:35:00.108Z,995.6
2023-03-22T00:40:00.123Z,995.63
2023-03-22T00:45:00.131Z,995.64
2023-03-22T00:50:00.126Z,995.65
2023-03-22T00:55:00.101Z,995.72
2023-03-22T01:00:00.159Z,995.61
2023-03-22T01:05:00.206Z,995.56
2023-03-22T01:10:00.103Z,995.57
2023-03-22T01:15:00.112Z,995.4
2023-03-22T01:20:00.103Z,995.39
2023-03-22T01:25:00.124Z,995.42
2023-03-22T01:30:00.115Z,995.42
2023-03-22T01:35:00.122Z,995.39
2023-03-22T01:40:00.102Z,995.4
2023-03-22T01:45:00.126Z,995.27
2023-03-22T01:50:00.123Z,995.3
2023-03-22T01:55:00.122Z,995.19
2023-03-22T02:00:00.115Z,995.13
2023-03-22T02:05:00.131Z,995.2
2023-03-22T02:10:00.144Z,995.13
2023-03-22T02:15:00.108Z,995.05
2023-03-22T02:20:00.154Z,994.95
2023-03-22T02:25:00.726Z,994.97
2023-03-22T02:30:00.123Z,994.9
2023-03-22T02:35:00.111Z,994.88
2023-03-22T02:40:00.162Z,994.96
2023-03-22T02:45:00.136Z,995.02
2023-03-22T02:50:00.125Z,994.97
2023-03-22T02:55:00.116Z,994.99
2023-03-22T03:00:00.137Z,995.02
2023-03-22T03:05:00.143Z,995.04
2023-03-22T03:10:00.120Z,994.97
2023-03-22T03:15:00.105Z,994.98
2023-03-22T03:20:00.119Z,995.04
2023-03-22T03:25:00.119Z,995.02
2023-03-22T03:30:00.147Z,994.95
2023-03-22T03:35:00.094Z,994.95
2023-03-22T03:40:00.139Z,994.95
2023-03-22T03:45:00.122Z,994.95
2023-03-22T03:50:00.092Z,994.92
2023-03-22T03:55:00.140Z,994.95
2023-03-22T04:00:00.142Z,994.97
2023-03-22T04:05:00.203Z,994.92
2023-03-22T04:10:00.183Z,994.91
2023-03-22T04:15:00.107Z,994.89
2023-03-22T04:20:00.145Z,994.96
2023-03-22T04:25:00.118Z,994.77
2023-03-22T04:30:00.148Z,994.2
2023-03-22T04:35:00.106Z,994.14
2023-03-22T04:40:00.112Z,994.09
2023-03-22T04:45:00.116Z,994.2
2023-03-22T04:50:00.129Z,994.1
2023-03-22T04:55:00.098Z,993.99
2023-03-22T05:00:00.165Z,994.04
2023-03-22T05:05:00.116Z,993.96
2023-03-22T05:10:00.132Z,993.93
2023-03-22T05:15:00.132Z,994.08
2023-03-22T05:20:00.122Z,994.05
2023-03-22T05:25:00.155Z,994.03
2023-03-22T05:30:00.165Z,993.84
2023-03-22T05:35:00.136Z,993.84
2023-03-22T05:40:00.095Z,993.81
2023-03-22T05:45:00.139Z,993.82
2023-03-22T05:50:00.108Z,993.9
2023-03-22T05:55:00.115Z,993.81
2023-03-22T06:00:00.122Z,993.87
2023-03-22T06:05:00.154Z,993.85
2023-03-22T06:10:00.133Z,993.82
2023-03-22T06:15:00.158Z,993.79
2023-03-22T06:20:00.116Z,993.88
2023-03-22T06:25:00.166Z,993.91
2023-03-22T06:30:00.151Z,993.98
2023-03-22T06:35:00.112Z,993.99
2023-03-22T06:40:00.109Z,994.08
2023-03-22T06:45:00.120Z,994.13
2023-03-22T06:50:00.090Z,994.18
2023-03-22T06:55:00.122Z,994.15
2023-03-22T07:00:00.152Z,994.15
2023-03-22T07:05:00.108Z,994.22
2023-03-22T07:10:00.145Z,994.15
2023-03-22T07:15:00.092Z,994.11
2023-03-22T07:20:00.144Z,994.04
2023-03-22T07:25:01.779Z,994.02
2023-03-22T07:30:00.133Z,994.01
2023-03-22T07:35:00.107Z,993.98
2023-03-22T07:40:00.120Z,993.98
2023-03-22T07:45:00.224Z,993.93
2023-03-22T07:50:00.117Z,993.95
2023-03-22T07:55:00.129Z,993.99
2023-03-22T08:00:00.145Z,994.03
2023-03-22T08:05:00.154Z,993.89
2023-03-22T08:10:00.133Z,993.82
2023-03-22T08:15:00.121Z,994
2023-03-22T08:20:00.136Z,993.99
2023-03-22T08:25:00.143Z,993.98
2023-03-22T08:30:00.142Z,993.93
2023-03-22T08:35:00.135Z,994.01
2023-03-22T08:40:00.186Z,994.03
2023-03-22T08:45:00.127Z,994.01
2023-03-22T08:50:00.115Z,993.93
2023-03-22T08:55:00.143Z,993.86
2023-03-22T09:00:00.143Z,993.93
2023-03-22T09:05:00.142Z,993.8
2023-03-22T09:10:00.125Z,993.7
2023-03-22T09:15:00.114Z,993.6
2023-03-22T09:20:11.360Z,993.46
2023-03-22T09:25:00.157Z,993.49
2023-03-22T09:30:00.182Z,993.48
2023-03-22T09:35:00.122Z,993.43
2023-03-22T09:40:00.127Z,993.4
2023-03-22T09:45:00.121Z,993.36
2023-03-22T09:50:00.117Z,993.31
2023-03-22T09:55:00.121Z,993.27
2023-03-22T10:00:00.147Z,993.17
2023-03-22T10:05:00.126Z,993.16
2023-03-22T10:10:00.147Z,993.05
2023-03-22T10:15:00.106Z,993.09
2023-03-22T10:20:00.110Z,992.96
2023-03-22T10:25:00.178Z,992.82
2023-03-22T10:30:00.105Z,992.79
2023-03-22T10:35:00.238Z,992.8
2023-03-22T10:40:00.125Z,992.71
2023-03-22T10:45:00.125Z,992.61
2023-03-22T10:50:00.121Z,992.57
2023-03-22T10:55:03.125Z,992.58
2023-03-22T11:00:00.143Z,992.54
2023-03-22T11:05:00.143Z,992.49
2023-03-22T11:10:00.111Z,992.42
2023-03-22T11:15:00.113Z,992.37
2023-03-22T11:20:00.157Z,992.51
2023-03-22T11:25:00.151Z,992.51
2023-03-22T11:30:00.120Z,992.17
2023-03-22T11:35:00.102Z,992.19
2023-03-22T11:40:00.183Z,992.26
2023-03-22T11:45:00.158Z,992.1
2023-03-22T11:50:00.200Z,992.17
2023-03-22T11:55:00.156Z,991.94
2023-03-22T12:00:00.165Z,991.96
2023-03-22T12:05:00.262Z,991.84
2023-03-22T12:10:00.435Z,991.93
2023-03-22T12:15:00.140Z,991.84
2023-03-22T12:20:00.117Z,991.71
2023-03-22T12:25:00.196Z,991.74
2023-03-22T12:30:00.197Z,991.64
2023-03-22T12:35:14.050Z,991.55
2023-03-22T12:40:00.131Z,991.53
2023-03-22T12:45:04.938Z,991.48
2023-03-22T12:50:00.166Z,991.5
2023-03-22T12:55:00.130Z,991.46
2023-03-22T13:00:00.193Z,991.44
2023-03-22T13:05:00.187Z,991.23
2023-03-22T13:10:00.166Z,991.25
2023-03-22T13:15:00.156Z,991.15
2023-03-22T13:20:00.124Z,991.15
2023-03-22T13:25:00.138Z,991.12
2023-03-22T13:30:00.169Z,991.12
2023-03-22T13:35:00.129Z,991.12
2023-03-22T13:40:00.103Z,991.04
2023-03-22T13:45:00.193Z,990.93
2023-03-22T13:50:00.135Z,991.02
2023-03-22T13:55:00.096Z,990.9
2023-03-22T14:00:09.863Z,990.89
2023-03-22T14:05:00.156Z,990.79
2023-03-22T14:10:00.146Z,990.8
2023-03-22T14:15:00.117Z,990.69
2023-03-22T14:20:00.144Z,990.63
2023-03-22T14:50:00.138Z,990.49
2023-03-22T14:55:00.105Z,990.49
2023-03-22T15:00:00.162Z,990.55
2023-03-22T15:05:00.162Z,990.76
2023-03-22T15:10:00.139Z,990.72
2023-03-22T15:15:00.099Z,990.78
2023-03-22T15:20:00.141Z,990.83
2023-03-22T15:25:00.124Z,990.74
2023-03-22T15:30:00.155Z,990.68
2023-03-22T15:35:00.132Z,990.73
2023-03-22T15:40:00.138Z,990.66
2023-03-22T15:45:00.120Z,990.65
2023-03-22T15:50:00.171Z,990.66
2023-03-22T15:55:00.149Z,990.54
2023-03-22T16:00:00.238Z,990.69
2023-03-22T16:05:00.154Z,990.58
2023-03-22T16:10:00.133Z,990.58
2023-03-22T16:15:00.136Z,990.63
2023-03-22T16:20:00.225Z,990.81
2023-03-22T16:25:00.102Z,990.7
2023-03-22T16:30:00.148Z,990.7
2023-03-22T16:35:00.127Z,990.78
2023-03-22T16:40:00.124Z,990.96
2023-03-22T16:45:00.141Z,991
2023-03-22T16:50:00.147Z,991.04
2023-03-22T16:55:00.169Z,991.03
2023-03-22T17:00:00.237Z,991.08
2023-03-22T17:05:00.153Z,991.15
2023-03-22T17:10:00.139Z,991.12
2023-03-22T17:15:00.109Z,991.02
2023-03-22T17:20:00.137Z,991.09
2023-03-22T17:25:00.114Z,991.08
2023-03-22T17:30:00.147Z,991.25
2023-03-22T17:35:00.124Z,991.23
2023-03-22T17:40:20.664Z,991.26
2023-03-22T17:45:00.138Z,991.31
2023-03-22T17:50:00.165Z,991.39
2023-03-22T18:00:00.129Z,991.48
2023-03-22T18:05:00.108Z,991.52
2023-03-22T18:10:00.125Z,991.58
2023-03-22T18:15:00.119Z,991.56
2023-03-22T18:20:12.433Z,991.61
2023-03-22T18:25:00.129Z,991.54
2023-03-22T18:30:00.163Z,991.7
2023-03-22T18:35:00.136Z,991.61
2023-03-22T18:45:00.145Z,991.93
2023-03-22T18:50:00.171Z,991.86
2023-03-22T18:55:07.549Z,991.8
2023-03-22T19:00:00.160Z,991.73
2023-03-22T19:05:00.160Z,991.55
2023-03-22T19:10:00.169Z,991.36
2023-03-22T19:15:25.183Z,991.26
2023-03-22T19:20:00.118Z,991.06
2023-03-22T19:25:00.122Z,991.04
2023-03-22T19:30:00.162Z,991.13
2023-03-22T19:35:00.115Z,991.17
2023-03-22T19:40:45.775Z,991.15
2023-03-22T19:45:00.133Z,991.08
2023-03-22T19:50:00.134Z,991.02
2023-03-22T19:55:00.129Z,990.97
2023-03-22T20:00:28.734Z,990.79
2023-03-22T20:05:02.855Z,990.81
2023-03-22T20:10:00.169Z,990.83
2023-03-22T20:15:00.124Z,990.84
2023-03-22T20:20:00.123Z,990.75
2023-03-22T20:25:00.127Z,990.75
2023-03-22T20:30:00.300Z,990.84
2023-03-22T20:35:00.138Z,990.8
2023-03-22T20:40:00.132Z,990.79
2023-03-22T20:45:00.131Z,990.73
2023-03-22T20:50:00.195Z,990.71
2023-03-22T20:55:00.131Z,990.76
2023-03-22T21:00:00.152Z,990.61
2023-03-22T21:05:00.135Z,990.64
2023-03-22T21:10:00.137Z,990.53
2023-03-22T21:15:00.105Z,990.58
2023-03-22T21:20:00.134Z,990.6
2023-03-22T21:25:00.161Z,990.49
2023-03-22T21:30:00.148Z,991.04
2023-03-22T21:35:00.121Z,990.96
2023-03-22T21:40:00.160Z,991.05
2023-03-22T21:45:00.173Z,990.89
2023-03-22T21:50:00.147Z,990.9
2023-03-22T21:55:00.124Z,990.87
2023-03-22T22:00:00.128Z,990.84
2023-03-22T22:05:00.131Z,990.86
2023-03-22T22:10:00.178Z,990.8
2023-03-22T22:15:00.122Z,990.86
2023-03-22T22:20:00.123Z,990.79
2023-03-22T22:25:00.110Z,990.73
2023-03-22T22:30:00.141Z,990.72
2023-03-22T22:35:00.116Z,990.76
2023-03-22T22:40:00.122Z,990.8
2023-03-22T22:45:00.107Z,990.75
2023-03-22T22:50:00.165Z,990.79
2023-03-22T22:55:00.124Z,990.66
2023-03-22T23:00:00.161Z,990.72
2023-03-22T23:05:00.128Z,990.64
2023-03-22T23:10:00.128Z,990.59
2023-03-22T23:15:00.129Z,990.62
2023-03-22T23:20:00.126Z,990.53
2023-03-22T23:25:00.121Z,990.49
2023-03-22T23:30:00.149Z,990.42
2023-03-22T23:35:00.118Z,990.4
2023-03-22T23:40:00.115Z,990.38
2023-03-22T23:45:00.101Z,990.41
2023-03-22T23:50:00.140Z,990.37
2023-03-22T23:55:00.102Z,990.33
